sensor_id;sensor_type;location;lat;lon;timestamp;pressure;altitude;pressure_sealevel;temperature;humidity
19672;BME280;9983;51.114;13.788;2023-12-28T00:04:45;99173.97;;;8.49;81.04
19672;BME280;9983;51.114;13.788;2023-12-28T00:09:45;99170.94;;;8.19;86.84
19672;BME280;9983;51.114;13.788;2023-12-28T00:14:45;99153.91;;;8.20;84.86
19672;BME280;9983;51.114;13.788;2023-12-28T00:19:46;99158.63;;;8.34;83.49
19672;BME280;9983;51.114;13.788;2023-12-28T00:24:46;99160.91;;;8.21;84.65
19672;BME280;9983;51.114;13.788;2023-12-28T00:29:46;99142.22;;;8.29;82.83
19672;BME280;9983;51.114;13.788;2023-12-28T00:34:46;99124.91;;;8.09;81.67
19672;BME280;9983;51.114;13.788;2023-12-28T00:39:47;99131.53;;;8.29;80.27
19672;BME280;9983;51.114;13.788;2023-12-28T00:44:49;99122.53;;;8.47;76.29
19672;BME280;9983;51.114;13.788;2023-12-28T00:49:50;99120.84;;;8.46;79.76
19672;BME280;9983;51.114;13.788;2023-12-28T00:54:50;99106.84;;;8.27;85.36
19672;BME280;9983;51.114;13.788;2023-12-28T00:59:50;99110.53;;;8.10;82.58
19672;BME280;9983;51.114;13.788;2023-12-28T01:04:51;99122.84;;;7.62;89.92
19672;BME280;9983;51.114;13.788;2023-12-28T01:09:51;99116.22;;;7.75;90.82
19672;BME280;9983;51.114;13.788;2023-12-28T01:14:51;99103.19;;;7.63;93.25
19672;BME280;9983;51.114;13.788;2023-12-28T01:19:51;99110.81;;;7.42;90.66
19672;BME280;9983;51.114;13.788;2023-12-28T01:24:51;99114.16;;;7.36;94.95
19672;BME280;9983;51.114;13.788;2023-12-28T01:29:52;99123.50;;;7.56;87.59
19672;BME280;9983;51.114;13.788;2023-12-28T01:34:52;99127.84;;;7.49;91.96
19672;BME280;9983;51.114;13.788;2023-12-28T01:39:52;99129.47;;;7.34;93.88
19672;BME280;9983;51.114;13.788;2023-12-28T01:44:52;99117.13;;;7.33;94.66
19672;BME280;9983;51.114;13.788;2023-12-28T01:49:53;99098.44;;;7.25;92.63
19672;BME280;9983;51.114;13.788;2023-12-28T01:54:54;99103.09;;;7.15;96.73
19672;BME280;9983;51.114;13.788;2023-12-28T01:59:55;99102.31;;;6.89;98.86
19672;BME280;9983;51.114;13.788;2023-12-28T02:04:55;99090.03;;;6.62;100.00
19672;BME280;9983;51.114;13.788;2023-12-28T02:09:55;99077.28;;;6.73;100.00
19672;BME280;9983;51.114;13.788;2023-12-28T02:14:56;99074.66;;;6.22;100.00
19672;BME280;9983;51.114;13.788;2023-12-28T02:19:57;99077.44;;;6.38;97.96
19672;BME280;9983;51.114;13.788;2023-12-28T02:25:04;99086.59;;;6.69;88.62
19672;BME280;9983;51.114;13.788;2023-12-28T02:30:07;99087.50;;;7.36;73.90
19672;BME280;9983;51.114;13.788;2023-12-28T02:35:23;99084.69;;;7.78;73.42
19672;BME280;9983;51.114;13.788;2023-12-28T02:40:26;99078.97;;;8.14;66.42
19672;BME280;9983;51.114;13.788;2023-12-28T02:45:27;99085.13;;;8.47;60.12
19672;BME280;9983;51.114;13.788;2023-12-28T02:50:28;99078.75;;;8.56;60.39
19672;BME280;9983;51.114;13.788;2023-12-28T02:55:30;99077.88;;;9.10;54.03
19672;BME280;9983;51.114;13.788;2023-12-28T03:00:30;99065.09;;;9.29;56.15
19672;BME280;9983;51.114;13.788;2023-12-28T03:05:31;99074.22;;;9.80;54.73
19672;BME280;9983;51.114;13.788;2023-12-28T03:10:31;99096.88;;;10.52;46.85
19672;BME280;9983;51.114;13.788;2023-12-28T03:15:32;99094.09;;;10.90;43.46
19672;BME280;9983;51.114;13.788;2023-12-28T03:20:32;99110.19;;;11.19;42.48
19672;BME280;9983;51.114;13.788;2023-12-28T03:25:33;99122.38;;;11.07;42.35
19672;BME280;9983;51.114;13.788;2023-12-28T03:30:33;99124.13;;;11.29;42.95
19672;BME280;9983;51.114;13.788;2023-12-28T03:35:33;99134.16;;;11.21;41.79
19672;BME280;9983;51.114;13.788;2023-12-28T03:40:33;99144.50;;;11.60;42.87
19672;BME280;9983;51.114;13.788;2023-12-28T03:45:34;99135.78;;;11.22;44.38
19672;BME280;9983;51.114;13.788;2023-12-28T03:50:38;99122.78;;;11.04;44.38
19672;BME280;9983;51.114;13.788;2023-12-28T03:55:38;99128.88;;;10.98;46.60
19672;BME280;9983;51.114;13.788;2023-12-28T04:00:39;99132.03;;;10.87;44.63
19672;BME280;9983;51.114;13.788;2023-12-28T04:05:39;99128.50;;;11.01;44.18
19672;BME280;9983;51.114;13.788;2023-12-28T04:10:39;99131.44;;;11.35;43.70
19672;BME280;9983;51.114;13.788;2023-12-28T04:15:42;99118.84;;;11.36;45.91
19672;BME280;9983;51.114;13.788;2023-12-28T04:20:43;99125.94;;;11.44;43.30
19672;BME280;9983;51.114;13.788;2023-12-28T04:25:44;99120.28;;;11.38;44.03
19672;BME280;9983;51.114;13.788;2023-12-28T04:30:44;99107.22;;;11.50;44.27
19672;BME280;9983;51.114;13.788;2023-12-28T04:35:45;99119.16;;;11.48;46.00
19672;BME280;9983;51.114;13.788;2023-12-28T04:40:46;99113.56;;;11.64;44.28
19672;BME280;9983;51.114;13.788;2023-12-28T04:45:46;99117.34;;;11.69;44.96
19672;BME280;9983;51.114;13.788;2023-12-28T04:50:47;99114.69;;;11.91;45.08
19672;BME280;9983;51.114;13.788;2023-12-28T04:55:48;99098.91;;;11.81;46.61
19672;BME280;9983;51.114;13.788;2023-12-28T05:00:48;99098.22;;;11.58;46.62
19672;BME280;9983;51.114;13.788;2023-12-28T05:05:48;99102.81;;;11.64;47.39
19672;BME280;9983;51.114;13.788;2023-12-28T05:10:48;99088.16;;;11.81;47.45
19672;BME280;9983;51.114;13.788;2023-12-28T05:15:49;99104.78;;;11.91;49.66
19672;BME280;9983;51.114;13.788;2023-12-28T05:20:49;99120.13;;;11.97;47.04
19672;BME280;9983;51.114;13.788;2023-12-28T05:25:49;99134.72;;;12.09;50.47
19672;BME280;9983;51.114;13.788;2023-12-28T05:30:49;99129.03;;;12.19;49.35
19672;BME280;9983;51.114;13.788;2023-12-28T05:35:50;99134.25;;;12.06;50.53
19672;BME280;9983;51.114;13.788;2023-12-28T05:40:50;99156.72;;;12.20;49.36
19672;BME280;9983;51.114;13.788;2023-12-28T05:45:50;99157.00;;;12.03;52.19
19672;BME280;9983;51.114;13.788;2023-12-28T05:50:50;99158.19;;;12.22;52.04
19672;BME280;9983;51.114;13.788;2023-12-28T05:55:51;99182.25;;;11.73;52.73
19672;BME280;9983;51.114;13.788;2023-12-28T06:00:51;99176.81;;;12.02;55.20
19672;BME280;9983;51.114;13.788;2023-12-28T06:05:51;99175.03;;;11.88;53.90
19672;BME280;9983;51.114;13.788;2023-12-28T06:10:51;99171.44;;;12.02;58.09
19672;BME280;9983;51.114;13.788;2023-12-28T06:15:52;99185.59;;;11.75;55.38
19672;BME280;9983;51.114;13.788;2023-12-28T06:20:52;99169.97;;;11.78;57.69
19672;BME280;9983;51.114;13.788;2023-12-28T06:25:52;99181.47;;;11.94;58.68
19672;BME280;9983;51.114;13.788;2023-12-28T06:30:54;99166.06;;;12.02;59.91
19672;BME280;9983;51.114;13.788;2023-12-28T06:35:54;99178.81;;;11.94;61.60
19672;BME280;9983;51.114;13.788;2023-12-28T06:40:55;99159.66;;;11.82;63.25
19672;BME280;9983;51.114;13.788;2023-12-28T06:45:55;99171.16;;;11.76;64.61
19672;BME280;9983;51.114;13.788;2023-12-28T06:50:55;99201.72;;;11.75;66.27
19672;BME280;9983;51.114;13.788;2023-12-28T06:55:56;99173.41;;;11.58;66.95
19672;BME280;9983;51.114;13.788;2023-12-28T07:00:56;99175.72;;;12.18;65.71
19672;BME280;9983;51.114;13.788;2023-12-28T07:05:57;99185.59;;;11.75;68.99
19672;BME280;9983;51.114;13.788;2023-12-28T07:10:57;99188.53;;;11.80;70.03
19672;BME280;9983;51.114;13.788;2023-12-28T07:15:57;99227.09;;;11.87;69.83
19672;BME280;9983;51.114;13.788;2023-12-28T07:20:58;99236.81;;;11.59;72.13
19672;BME280;9983;51.114;13.788;2023-12-28T07:25:58;99223.69;;;11.34;73.98
19672;BME280;9983;51.114;13.788;2023-12-28T07:30:58;99213.63;;;11.72;72.08
19672;BME280;9983;51.114;13.788;2023-12-28T07:35:58;99221.34;;;11.61;73.18
19672;BME280;9983;51.114;13.788;2023-12-28T07:41:02;99224.50;;;11.79;73.43
19672;BME280;9983;51.114;13.788;2023-12-28T07:46:03;99217.06;;;11.66;74.37
19672;BME280;9983;51.114;13.788;2023-12-28T07:51:04;99200.72;;;11.47;74.71
19672;BME280;9983;51.114;13.788;2023-12-28T07:56:05;99204.28;;;11.83;73.47
19672;BME280;9983;51.114;13.788;2023-12-28T08:01:12;99222.28;;;11.38;74.69
19672;BME280;9983;51.114;13.788;2023-12-28T08:06:12;99231.91;;;11.77;75.11
19672;BME280;9983;51.114;13.788;2023-12-28T08:11:12;99222.63;;;11.94;73.52
19672;BME280;9983;51.114;13.788;2023-12-28T08:16:13;99241.00;;;11.76;74.30
19672;BME280;9983;51.114;13.788;2023-12-28T08:21:13;99249.13;;;11.38;76.34
19672;BME280;9983;51.114;13.788;2023-12-28T08:26:13;99250.59;;;11.56;75.89
19672;BME280;9983;51.114;13.788;2023-12-28T08:31:13;99246.63;;;11.81;76.62
19672;BME280;9983;51.114;13.788;2023-12-28T08:36:15;99246.00;;;11.79;77.45
19672;BME280;9983;51.114;13.788;2023-12-28T08:41:18;99237.06;;;11.64;78.38
19672;BME280;9983;51.114;13.788;2023-12-28T08:46:19;99263.78;;;11.21;80.61
19672;BME280;9983;51.114;13.788;2023-12-28T08:51:19;99266.72;;;11.56;80.05
19672;BME280;9983;51.114;13.788;2023-12-28T08:56:20;99276.72;;;11.32;81.35
19672;BME280;9983;51.114;13.788;2023-12-28T09:01:22;99260.78;;;11.16;83.87
19672;BME280;9983;51.114;13.788;2023-12-28T09:06:23;99267.25;;;11.22;84.68
19672;BME280;9983;51.114;13.788;2023-12-28T09:11:23;99263.00;;;11.57;82.60
19672;BME280;9983;51.114;13.788;2023-12-28T09:16:23;99265.81;;;11.78;82.55
19672;BME280;9983;51.114;13.788;2023-12-28T09:21:24;99274.25;;;12.11;80.34
19672;BME280;9983;51.114;13.788;2023-12-28T09:26:25;99281.72;;;11.94;80.95
19672;BME280;9983;51.114;13.788;2023-12-28T09:31:25;99277.84;;;11.53;82.34
19672;BME280;9983;51.114;13.788;2023-12-28T09:36:26;99274.44;;;12.09;81.64
19672;BME280;9983;51.114;13.788;2023-12-28T09:41:26;99269.97;;;12.16;81.16
19672;BME280;9983;51.114;13.788;2023-12-28T09:46:27;99259.50;;;12.43;79.11
19672;BME280;9983;51.114;13.788;2023-12-28T09:51:27;99265.81;;;11.78;82.56
19672;BME280;9983;51.114;13.788;2023-12-28T09:56:27;99287.91;;;11.65;83.21
19672;BME280;9983;51.114;13.788;2023-12-28T10:01:28;99274.97;;;11.84;84.17
19672;BME280;9983;51.114;13.788;2023-12-28T10:06:28;99271.97;;;11.64;83.16
19672;BME280;9983;51.114;13.788;2023-12-28T10:11:29;99270.41;;;11.25;84.72
19672;BME280;9983;51.114;13.788;2023-12-28T10:16:29;99277.28;;;11.43;84.30
19672;BME280;9983;51.114;13.788;2023-12-28T10:21:29;99291.72;;;11.71;82.76
19672;BME280;9983;51.114;13.788;2023-12-28T10:26:29;99272.66;;;11.36;84.92
19672;BME280;9983;51.114;13.788;2023-12-28T10:31:30;99273.53;;;12.02;80.65
19672;BME280;9983;51.114;13.788;2023-12-28T10:36:30;99267.25;;;11.95;79.70
19672;BME280;9983;51.114;13.788;2023-12-28T10:41:32;99260.13;;;12.24;78.53
19672;BME280;9983;51.114;13.788;2023-12-28T10:46:39;99266.13;;;12.04;80.95
19672;BME280;9983;51.114;13.788;2023-12-28T10:51:42;99260.53;;;12.21;78.70
19672;BME280;9983;51.114;13.788;2023-12-28T10:56:46;99264.28;;;11.90;79.22
19672;BME280;9983;51.114;13.788;2023-12-28T11:01:51;99246.81;;;12.15;77.55
19672;BME280;9983;51.114;13.788;2023-12-28T11:06:52;99244.25;;;12.50;76.33
19672;BME280;9983;51.114;13.788;2023-12-28T11:11:54;99245.66;;;12.25;76.86
19672;BME280;9983;51.114;13.788;2023-12-28T11:16:59;99254.44;;;11.97;76.54
19672;BME280;9983;51.114;13.788;2023-12-28T11:22:02;99259.44;;;12.79;72.97
19672;BME280;9983;51.114;13.788;2023-12-28T11:27:03;99257.09;;;11.76;77.90
19672;BME280;9983;51.114;13.788;2023-12-28T11:32:05;99259.09;;;12.88;73.54
19672;BME280;9983;51.114;13.788;2023-12-28T11:37:16;99257.44;;;12.87;73.55
19672;BME280;9983;51.114;13.788;2023-12-28T11:42:20;99252.78;;;12.53;72.45
19672;BME280;9983;51.114;13.788;2023-12-28T11:47:22;99254.38;;;12.69;73.66
19672;BME280;9983;51.114;13.788;2023-12-28T11:52:26;99259.63;;;12.56;72.23
19672;BME280;9983;51.114;13.788;2023-12-28T11:57:26;99256.41;;;12.67;71.32
19672;BME280;9983;51.114;13.788;2023-12-28T12:02:26;99255.03;;;12.50;71.78
19672;BME280;9983;51.114;13.788;2023-12-28T12:07:27;99265.66;;;12.79;69.96
19672;BME280;9983;51.114;13.788;2023-12-28T12:12:27;99266.28;;;12.60;70.65
19672;BME280;9983;51.114;13.788;2023-12-28T12:17:27;99256.25;;;12.97;70.19
19672;BME280;9983;51.114;13.788;2023-12-28T12:22:28;99245.66;;;12.67;69.00
19672;BME280;9983;51.114;13.788;2023-12-28T12:27:28;99268.72;;;12.12;71.36
19672;BME280;9983;51.114;13.788;2023-12-28T12:32:28;99240.00;;;12.83;70.76
19672;BME280;9983;51.114;13.788;2023-12-28T12:37:29;99244.16;;;12.37;72.22
19672;BME280;9983;51.114;13.788;2023-12-28T12:42:29;99244.25;;;12.07;72.78
19672;BME280;9983;51.114;13.788;2023-12-28T12:47:33;99237.09;;;12.36;72.39
19672;BME280;9983;51.114;13.788;2023-12-28T12:52:36;99243.47;;;12.13;73.16
19672;BME280;9983;51.114;13.788;2023-12-28T12:57:36;99240.53;;;12.08;73.04
19672;BME280;9983;51.114;13.788;2023-12-28T13:02:38;99233.72;;;11.91;74.41
19672;BME280;9983;51.114;13.788;2023-12-28T13:07:38;99237.63;;;11.74;75.91
19672;BME280;9983;51.114;13.788;2023-12-28T13:12:39;99249.13;;;12.19;73.99
19672;BME280;9983;51.114;13.788;2023-12-28T13:17:39;99253.31;;;12.06;75.69
19672;BME280;9983;51.114;13.788;2023-12-28T13:22:39;99253.59;;;12.33;74.19
19672;BME280;9983;51.114;13.788;2023-12-28T13:27:40;99249.25;;;12.10;78.06
19672;BME280;9983;51.114;13.788;2023-12-28T13:32:40;99245.69;;;11.89;77.56
19672;BME280;9983;51.114;13.788;2023-12-28T13:37:40;99242.25;;;11.80;78.27
19672;BME280;9983;51.114;13.788;2023-12-28T13:42:41;99239.91;;;12.70;74.09
19672;BME280;9983;51.114;13.788;2023-12-28T13:47:41;99234.84;;;12.18;75.98
19672;BME280;9983;51.114;13.788;2023-12-28T13:52:42;99237.72;;;12.59;74.82
19672;BME280;9983;51.114;13.788;2023-12-28T13:57:42;99234.03;;;12.18;77.78
19672;BME280;9983;51.114;13.788;2023-12-28T14:02:43;99242.66;;;11.77;78.86
19672;BME280;9983;51.114;13.788;2023-12-28T14:07:43;99247.66;;;12.16;78.52
19672;BME280;9983;51.114;13.788;2023-12-28T14:12:43;99243.72;;;11.97;79.92
19672;BME280;9983;51.114;13.788;2023-12-28T14:17:44;99248.69;;;11.20;84.48
19672;BME280;9983;51.114;13.788;2023-12-28T14:22:44;99241.38;;;11.44;84.60
19672;BME280;9983;51.114;13.788;2023-12-28T14:27:45;99237.66;;;11.45;85.13
19672;BME280;9983;51.114;13.788;2023-12-28T14:32:45;99230.25;;;11.76;83.83
19672;BME280;9983;51.114;13.788;2023-12-28T14:37:46;99230.63;;;11.44;84.66
19672;BME280;9983;51.114;13.788;2023-12-28T14:42:46;99230.63;;;11.44;84.95
19672;BME280;9983;51.114;13.788;2023-12-28T14:47:46;99231.91;;;11.77;82.12
19672;BME280;9983;51.114;13.788;2023-12-28T14:52:47;99225.16;;;10.93;87.30
19672;BME280;9983;51.114;13.788;2023-12-28T14:57:47;99223.03;;;11.03;86.94
19672;BME280;9983;51.114;13.788;2023-12-28T15:02:47;99221.34;;;11.61;82.82
19672;BME280;9983;51.114;13.788;2023-12-28T15:07:47;99220.00;;;11.21;85.43
19672;BME280;9983;51.114;13.788;2023-12-28T15:12:48;99206.00;;;11.55;82.25
19672;BME280;9983;51.114;13.788;2023-12-28T15:17:49;99210.97;;;11.58;82.51
19672;BME280;9983;51.114;13.788;2023-12-28T15:22:49;99220.97;;;10.76;87.10
19672;BME280;9983;51.114;13.788;2023-12-28T15:27:50;99216.63;;;11.48;83.75
19672;BME280;9983;51.114;13.788;2023-12-28T15:32:50;99215.00;;;11.32;84.68
19672;BME280;9983;51.114;13.788;2023-12-28T15:37:50;99206.84;;;11.26;85.86
19672;BME280;9983;51.114;13.788;2023-12-28T15:42:50;99221.72;;;11.14;87.65
19672;BME280;9983;51.114;13.788;2023-12-28T15:47:51;99217.78;;;11.24;85.05
19672;BME280;9983;51.114;13.788;2023-12-28T15:52:51;99196.13;;;10.44;91.80
19672;BME280;9983;51.114;13.788;2023-12-28T15:57:51;99195.97;;;10.15;97.58
19672;BME280;9983;51.114;13.788;2023-12-28T16:02:52;99198.38;;;10.33;94.33
19672;BME280;9983;51.114;13.788;2023-12-28T16:07:52;99188.28;;;10.20;94.29
19672;BME280;9983;51.114;13.788;2023-12-28T16:12:52;99197.44;;;10.03;95.18
19672;BME280;9983;51.114;13.788;2023-12-28T16:17:53;99204.00;;;9.69;97.85
19672;BME280;9983;51.114;13.788;2023-12-28T16:22:57;99202.66;;;9.34;100.00
19672;BME280;9983;51.114;13.788;2023-12-28T16:27:57;99192.84;;;9.19;100.00
19672;BME280;9983;51.114;13.788;2023-12-28T16:32:57;99183.03;;;9.03;100.00
19672;BME280;9983;51.114;13.788;2023-12-28T16:37:58;99186.25;;;8.82;100.00
19672;BME280;9983;51.114;13.788;2023-12-28T16:42:58;99182.31;;;8.37;100.00
19672;BME280;9983;51.114;13.788;2023-12-28T16:47:58;99165.94;;;8.57;100.00
19672;BME280;9983;51.114;13.788;2023-12-28T16:52:58;99185.16;;;8.52;100.00
19672;BME280;9983;51.114;13.788;2023-12-28T16:57:59;99179.28;;;8.16;100.00
19672;BME280;9983;51.114;13.788;2023-12-28T17:02:59;99188.91;;;7.60;100.00
19672;BME280;9983;51.114;13.788;2023-12-28T17:07:59;99198.28;;;8.05;100.00
19672;BME280;9983;51.114;13.788;2023-12-28T17:13:00;99201.13;;;8.04;100.00
19672;BME280;9983;51.114;13.788;2023-12-28T17:18:00;99194.28;;;7.85;100.00
19672;BME280;9983;51.114;13.788;2023-12-28T17:23:26;99198.16;;;7.40;100.00
19672;BME280;9983;51.114;13.788;2023-12-28T17:28:46;99201.09;;;7.29;100.00
19672;BME280;9983;51.114;13.788;2023-12-28T17:33:47;99205.81;;;7.35;100.00
19672;BME280;9983;51.114;13.788;2023-12-28T17:38:48;99201.75;;;7.23;100.00
19672;BME280;9983;51.114;13.788;2023-12-28T17:43:55;99207.81;;;7.33;100.00
19672;BME280;9983;51.114;13.788;2023-12-28T17:48:58;99205.94;;;7.26;100.00
19672;BME280;9983;51.114;13.788;2023-12-28T17:53:59;99213.06;;;7.17;100.00
19672;BME280;9983;51.114;13.788;2023-12-28T17:59:00;99203.75;;;7.29;100.00
19672;BME280;9983;51.114;13.788;2023-12-28T18:04:00;99212.41;;;7.23;100.00
19672;BME280;9983;51.114;13.788;2023-12-28T18:09:00;99206.19;;;7.48;100.00
19672;BME280;9983;51.114;13.788;2023-12-28T18:14:00;99198.47;;;7.37;100.00
19672;BME280;9983;51.114;13.788;2023-12-28T18:19:01;99212.81;;;7.36;100.00
19672;BME280;9983;51.114;13.788;2023-12-28T18:24:02;99221.59;;;7.71;100.00
19672;BME280;9983;51.114;13.788;2023-12-28T18:29:02;99210.31;;;7.93;100.00
19672;BME280;9983;51.114;13.788;2023-12-28T18:34:03;99221.09;;;7.67;100.00
19672;BME280;9983;51.114;13.788;2023-12-28T18:39:03;99226.31;;;7.93;100.00
19672;BME280;9983;51.114;13.788;2023-12-28T18:44:05;99220.03;;;8.18;100.00
19672;BME280;9983;51.114;13.788;2023-12-28T18:49:05;99226.69;;;8.22;100.00
19672;BME280;9983;51.114;13.788;2023-12-28T18:54:05;99241.03;;;8.21;100.00
19672;BME280;9983;51.114;13.788;2023-12-28T18:59:05;99231.38;;;8.28;100.00
19672;BME280;9983;51.114;13.788;2023-12-28T19:04:06;99224.69;;;8.08;100.00
19672;BME280;9983;51.114;13.788;2023-12-28T19:09:06;99226.00;;;8.20;100.00
19672;BME280;9983;51.114;13.788;2023-12-28T19:14:06;99212.16;;;8.09;100.00
19672;BME280;9983;51.114;13.788;2023-12-28T19:19:06;99207.97;;;8.14;100.00
19672;BME280;9983;51.114;13.788;2023-12-28T19:24:07;99200.31;;;8.03;100.00
19672;BME280;9983;51.114;13.788;2023-12-28T19:29:08;99201.63;;;7.91;100.00
19672;BME280;9983;51.114;13.788;2023-12-28T19:34:08;99201.31;;;7.94;100.00
19672;BME280;9983;51.114;13.788;2023-12-28T19:39:08;99198.91;;;7.67;100.00
19672;BME280;9983;51.114;13.788;2023-12-28T19:44:09;99200.91;;;7.65;100.00
19672;BME280;9983;51.114;13.788;2023-12-28T19:49:09;99198.31;;;7.05;100.00
19672;BME280;9983;51.114;13.788;2023-12-28T19:54:09;99187.75;;;7.21;100.00
19672;BME280;9983;51.114;13.788;2023-12-28T19:59:10;99197.00;;;7.01;100.00
19672;BME280;9983;51.114;13.788;2023-12-28T20:04:10;99191.88;;;6.81;100.00
19672;BME280;9983;51.114;13.788;2023-12-28T20:09:10;99178.88;;;7.12;100.00
19672;BME280;9983;51.114;13.788;2023-12-28T20:14:12;99178.03;;;7.12;100.00
19672;BME280;9983;51.114;13.788;2023-12-28T20:19:12;99176.38;;;7.11;100.00
19672;BME280;9983;51.114;13.788;2023-12-28T20:24:12;99178.91;;;6.86;100.00
19672;BME280;9983;51.114;13.788;2023-12-28T20:29:13;99181.72;;;7.11;100.00
19672;BME280;9983;51.114;13.788;2023-12-28T20:34:13;99182.94;;;6.91;100.00
19672;BME280;9983;51.114;13.788;2023-12-28T20:39:13;99189.56;;;6.86;100.00
19672;BME280;9983;51.114;13.788;2023-12-28T20:44:14;99174.66;;;6.94;100.00
19672;BME280;9983;51.114;13.788;2023-12-28T20:49:14;99179.72;;;7.13;100.00
19672;BME280;9983;51.114;13.788;2023-12-28T20:54:14;99184.91;;;7.22;100.00
19672;BME280;9983;51.114;13.788;2023-12-28T20:59:14;99179.41;;;7.16;100.00
19672;BME280;9983;51.114;13.788;2023-12-28T21:04:15;99183.50;;;7.02;100.00
19672;BME280;9983;51.114;13.788;2023-12-28T21:09:15;99174.56;;;6.77;100.00
19672;BME280;9983;51.114;13.788;2023-12-28T21:14:15;99180.59;;;6.88;100.00
19672;BME280;9983;51.114;13.788;2023-12-28T21:19:17;99168.44;;;7.19;100.00
19672;BME280;9983;51.114;13.788;2023-12-28T21:24:18;99186.34;;;7.01;100.00
19672;BME280;9983;51.114;13.788;2023-12-28T21:29:18;99177.56;;;7.16;100.00
19672;BME280;9983;51.114;13.788;2023-12-28T21:34:18;99185.44;;;7.26;100.00
19672;BME280;9983;51.114;13.788;2023-12-28T21:39:18;99188.06;;;7.60;100.00
19672;BME280;9983;51.114;13.788;2023-12-28T21:44:19;99176.69;;;7.50;100.00
19672;BME280;9983;51.114;13.788;2023-12-28T21:49:19;99177.84;;;7.47;100.00
19672;BME280;9983;51.114;13.788;2023-12-28T21:54:20;99163.09;;;7.77;100.00
19672;BME280;9983;51.114;13.788;2023-12-28T21:59:20;99171.59;;;7.97;100.00
19672;BME280;9983;51.114;13.788;2023-12-28T22:04:22;99174.94;;;8.23;100.00
19672;BME280;9983;51.114;13.788;2023-12-28T22:09:22;99174.25;;;7.97;100.00
19672;BME280;9983;51.114;13.788;2023-12-28T22:14:22;99167.22;;;7.80;100.00
19672;BME280;9983;51.114;13.788;2023-12-28T22:19:23;99161.03;;;7.63;100.00
19672;BME280;9983;51.114;13.788;2023-12-28T22:24:23;99165.94;;;8.16;100.00
19672;BME280;9983;51.114;13.788;2023-12-28T22:29:24;99152.59;;;8.32;100.00
19672;BME280;9983;51.114;13.788;2023-12-28T22:34:24;99152.91;;;8.62;100.00
19672;BME280;9983;51.114;13.788;2023-12-28T22:39:24;99156.09;;;8.57;100.00
19672;BME280;9983;51.114;13.788;2023-12-28T22:44:24;99130.75;;;9.00;100.00
19672;BME280;9983;51.114;13.788;2023-12-28T22:49:25;99144.34;;;8.74;100.00
19672;BME280;9983;51.114;13.788;2023-12-28T22:54:25;99130.16;;;8.74;100.00
19672;BME280;9983;51.114;13.788;2023-12-28T22:59:25;99134.19;;;8.70;100.00
19672;BME280;9983;51.114;13.788;2023-12-28T23:04:25;99131.41;;;9.02;100.00
19672;BME280;9983;51.114;13.788;2023-12-28T23:09:26;99112.13;;;8.76;100.00
19672;BME280;9983;51.114;13.788;2023-12-28T23:14:26;99126.19;;;8.62;100.00
19672;BME280;9983;51.114;13.788;2023-12-28T23:19:27;99123.78;;;8.83;100.00
19672;BME280;9983;51.114;13.788;2023-12-28T23:24:27;99116.00;;;9.04;100.00
19672;BME280;9983;51.114;13.788;2023-12-28T23:29:27;99120.47;;;8.73;100.00
19672;BME280;9983;51.114;13.788;2023-12-28T23:34:27;99120.69;;;9.10;100.00
19672;BME280;9983;51.114;13.788;2023-12-28T23:39:29;99120.09;;;8.84;100.00
19672;BME280;9983;51.114;13.788;2023-12-28T23:44:29;99107.97;;;9.04;100.00
19672;BME280;9983;51.114;13.788;2023-12-28T23:49:29;99095.22;;;9.14;99.21
19672;BME280;9983;51.114;13.788;2023-12-28T23:54:33;99081.66;;;8.93;100.00
19672;BME280;9983;51.114;13.788;2023-12-28T23:59:36;99087.13;;;9.00;100.00
